createdAt,value
2023-09-06T00:00:24.511Z,3.33
2023-09-06T00:03:10.927Z,3.33
2023-09-06T00:05:56.437Z,3.38
2023-09-06T00:08:41.284Z,3.70
2023-09-06T00:11:26.202Z,3.20
2023-09-06T00:14:11.129Z,3.70
2023-09-06T00:16:56.615Z,3.47
2023-09-06T00:19:41.674Z,3.33
2023-09-06T00:22:26.615Z,4.10
2023-09-06T00:25:11.508Z,3.95
2023-09-06T00:27:57.059Z,4.20
2023-09-06T00:30:42.430Z,3.60
2023-09-06T00:33:27.826Z,3.60
2023-09-06T00:36:13.146Z,3.63
2023-09-06T00:38:58.130Z,4.18
2023-09-06T00:41:42.943Z,3.80
2023-09-06T00:44:27.798Z,4.05
2023-09-06T00:47:12.654Z,4.32
2023-09-06T00:49:57.540Z,4.53
2023-09-06T00:52:43.964Z,4.57
2023-09-06T00:55:28.809Z,4.50
2023-09-06T00:58:15.758Z,5.32
2023-09-06T01:01:01.375Z,4.78
2023-09-06T01:03:46.652Z,4.68
2023-09-06T01:06:35.137Z,5.03
2023-09-06T01:09:20.395Z,4.97
2023-09-06T01:12:05.490Z,4.90
2023-09-06T01:14:50.709Z,4.60
2023-09-06T01:17:37.081Z,4.90
2023-09-06T01:20:34.822Z,4.80
2023-09-06T01:23:30.868Z,4.38
2023-09-06T01:26:17.410Z,4.10
2023-09-06T01:29:03.199Z,4.05
2023-09-06T01:31:48.407Z,4.60
2023-09-06T01:34:33.740Z,4.32
2023-09-06T01:37:18.647Z,4.18
2023-09-06T01:40:05.680Z,4.25
2023-09-06T01:42:51.079Z,4.28
2023-09-06T01:45:38.686Z,4.60
2023-09-06T01:48:23.690Z,4.75
2023-09-06T01:51:08.708Z,4.68
2023-09-06T01:53:53.793Z,4.90
2023-09-06T01:56:38.644Z,4.90
2023-09-06T01:59:23.582Z,4.40
2023-09-06T02:02:08.509Z,4.30
2023-09-06T02:04:53.921Z,4.63
2023-09-06T02:07:38.737Z,5.15
2023-09-06T02:10:23.680Z,4.80
2023-09-06T02:13:08.910Z,4.50
2023-09-06T02:15:54.080Z,4.53
2023-09-06T02:18:39.497Z,4.85
2023-09-06T02:21:24.839Z,5.28
2023-09-06T02:24:09.939Z,5.25
2023-09-06T02:26:55.300Z,5.55
2023-09-06T02:29:41.429Z,4.88
2023-09-06T02:32:26.715Z,4.70
2023-09-06T02:35:11.996Z,5.60
2023-09-06T02:37:57.096Z,5.20
2023-09-06T02:40:42.246Z,5.05
2023-09-06T02:43:27.340Z,5.05
2023-09-06T02:46:12.701Z,5.07
2023-09-06T02:48:57.439Z,5.40
2023-09-06T02:51:42.365Z,4.95
2023-09-06T02:54:27.106Z,5.85
2023-09-06T02:57:12.038Z,5.45
2023-09-06T02:59:57.165Z,4.47
2023-09-06T03:02:42.319Z,5.20
2023-09-06T03:05:27.094Z,5.22
2023-09-06T03:08:13.438Z,5.68
2023-09-06T03:10:58.502Z,6.07
2023-09-06T03:13:43.760Z,5.68
2023-09-06T03:16:28.754Z,5.18
2023-09-06T03:19:13.899Z,5.03
2023-09-06T03:21:58.794Z,5.20
2023-09-06T03:24:43.563Z,4.80
2023-09-06T03:27:28.375Z,5.32
2023-09-06T03:30:13.297Z,5.38
2023-09-06T03:32:58.498Z,5.03
2023-09-06T03:35:44.511Z,4.68
2023-09-06T03:38:29.541Z,5.25
2023-09-06T03:41:14.737Z,6.82
2023-09-06T03:43:59.580Z,6.68
2023-09-06T03:46:45.040Z,5.88
2023-09-06T03:49:31.208Z,6.07
2023-09-06T03:52:16.050Z,5.72
2023-09-06T03:55:01.033Z,4.97
2023-09-06T03:57:46.393Z,5.05
2023-09-06T04:00:31.374Z,5.70
2023-09-06T04:03:17.960Z,5.53
2023-09-06T04:06:03.191Z,6.30
2023-09-06T04:08:48.158Z,5.65
2023-09-06T04:11:33.479Z,6.28
2023-09-06T04:14:18.209Z,5.45
2023-09-06T04:17:03.011Z,5.38
2023-09-06T04:19:47.863Z,5.43
2023-09-06T04:22:32.869Z,5.40
2023-09-06T04:25:17.920Z,4.88
2023-09-06T04:28:03.168Z,5.70
2023-09-06T04:30:48.071Z,5.72
2023-09-06T04:33:33.017Z,5.50
2023-09-06T04:36:17.818Z,5.63
2023-09-06T04:39:02.712Z,5.72
2023-09-06T04:41:47.575Z,5.90
2023-09-06T04:44:32.559Z,5.85
2023-09-06T04:47:17.478Z,5.90
2023-09-06T04:50:02.379Z,6.07
2023-09-06T04:52:49.605Z,5.32
2023-09-06T04:55:35.191Z,5.80
2023-09-06T04:58:20.761Z,6.20
2023-09-06T05:01:05.700Z,6.30
2023-09-06T05:03:51.034Z,5.55
2023-09-06T05:06:36.508Z,5.53
2023-09-06T05:09:21.370Z,6.18
2023-09-06T05:12:07.018Z,6.40
2023-09-06T05:14:53.886Z,7.18
2023-09-06T05:17:42.715Z,6.22
2023-09-06T05:20:31.050Z,5.88
2023-09-06T05:23:16.440Z,5.75
2023-09-06T05:26:01.374Z,5.72
2023-09-06T05:28:46.818Z,5.95
2023-09-06T05:31:31.838Z,5.90
2023-09-06T05:34:17.539Z,5.78
2023-09-06T05:37:02.682Z,5.30
2023-09-06T05:39:47.774Z,4.65
2023-09-06T05:42:32.925Z,5.18
2023-09-06T05:45:19.599Z,9.20
2023-09-06T05:48:04.881Z,5.47
2023-09-06T05:50:49.994Z,5.68
2023-09-06T05:53:34.864Z,5.70
2023-09-06T05:56:19.771Z,6.32
2023-09-06T05:59:05.156Z,5.93
2023-09-06T06:01:50.086Z,5.60
2023-09-06T06:04:35.612Z,5.57
2023-09-06T06:07:20.955Z,5.13
2023-09-06T06:10:07.751Z,4.80
2023-09-06T06:12:52.966Z,4.82
2023-09-06T06:15:37.973Z,5.10
2023-09-06T06:18:22.817Z,5.18
2023-09-06T06:21:07.660Z,5.00
2023-09-06T06:23:52.477Z,4.82
2023-09-06T06:26:37.453Z,4.82
2023-09-06T06:29:22.440Z,4.60
2023-09-06T06:32:07.751Z,6.05
2023-09-06T06:35:14.991Z,4.95
2023-09-06T06:38:00.429Z,4.72
2023-09-06T06:40:45.214Z,4.72
2023-09-06T06:43:30.107Z,4.35
2023-09-06T06:46:24.770Z,6.22
2023-09-06T06:49:10.752Z,3.83
2023-09-06T06:51:55.965Z,4.30
2023-09-06T06:54:41.205Z,4.07
2023-09-06T06:57:27.246Z,3.90
2023-09-06T07:00:12.938Z,4.68
2023-09-06T07:02:58.732Z,3.63
2023-09-06T07:05:43.501Z,3.30
2023-09-06T07:08:28.710Z,3.70
2023-09-06T07:11:15.116Z,4.10
2023-09-06T07:14:00.645Z,3.50
2023-09-06T07:16:45.951Z,3.78
2023-09-06T07:19:31.309Z,3.28
2023-09-06T07:22:16.538Z,3.60
2023-09-06T07:25:02.168Z,3.67
2023-09-06T07:27:47.949Z,3.58
2023-09-06T07:30:32.703Z,3.65
2023-09-06T07:33:18.041Z,3.40
2023-09-06T07:36:03.822Z,3.47
2023-09-06T07:38:49.368Z,3.47
2023-09-06T07:41:34.560Z,3.60
2023-09-06T07:44:20.154Z,3.15
2023-09-06T07:47:05.331Z,3.92
2023-09-06T07:49:50.537Z,5.32
2023-09-06T07:52:36.440Z,3.60
2023-09-06T07:55:21.358Z,3.55
2023-09-06T07:58:06.159Z,3.40
2023-09-06T08:00:59.267Z,3.33
2023-09-06T08:03:48.539Z,3.15
2023-09-06T08:06:34.377Z,3.60
2023-09-06T08:09:20.280Z,3.30
2023-09-06T08:12:06.845Z,3.30
2023-09-06T08:14:52.912Z,3.30
2023-09-06T08:17:38.089Z,3.10
2023-09-06T08:20:23.271Z,3.30
2023-09-06T08:23:08.983Z,3.00
2023-09-06T08:25:53.774Z,3.33
2023-09-06T08:28:39.848Z,2.90
2023-09-06T08:31:25.196Z,2.85
2023-09-06T08:34:11.270Z,3.00
2023-09-06T08:36:56.416Z,2.90
2023-09-06T08:39:41.530Z,3.08
2023-09-06T08:42:28.009Z,3.00
2023-09-06T08:45:12.837Z,2.90
2023-09-06T08:47:58.109Z,2.83
2023-09-06T08:50:45.154Z,2.55
2023-09-06T08:53:31.936Z,2.80
2023-09-06T08:56:18.213Z,2.83
2023-09-06T08:59:03.386Z,2.80
2023-09-06T09:01:48.614Z,2.90
2023-09-06T09:04:33.554Z,2.90
2023-09-06T09:07:18.838Z,2.47
2023-09-06T09:10:08.235Z,8.27
2023-09-06T09:12:55.825Z,3.20
2023-09-06T09:15:41.260Z,2.70
2023-09-06T09:18:29.803Z,2.95
2023-09-06T09:21:14.899Z,3.15
2023-09-06T09:24:01.005Z,2.55
2023-09-06T09:26:46.372Z,2.50
2023-09-06T09:29:31.314Z,2.53
2023-09-06T09:32:16.743Z,2.38
2023-09-06T09:35:02.502Z,2.70
2023-09-06T09:37:52.248Z,2.60
2023-09-06T09:40:52.382Z,2.30
2023-09-06T09:43:38.274Z,2.40
2023-09-06T09:46:30.157Z,2.80
2023-09-06T09:49:17.944Z,2.55
2023-09-06T09:52:03.378Z,2.50
2023-09-06T09:54:48.987Z,2.45
2023-09-06T09:57:35.289Z,2.70
2023-09-06T10:00:21.840Z,2.42
2023-09-06T10:03:07.331Z,2.55
2023-09-06T10:05:54.004Z,2.83
2023-09-06T10:08:40.816Z,2.35
2023-09-06T10:11:27.765Z,2.47
2023-09-06T10:14:13.536Z,2.50
2023-09-06T10:16:59.720Z,2.65
2023-09-06T10:19:54.447Z,2.72
2023-09-06T10:22:44.954Z,2.30
2023-09-06T10:25:31.250Z,2.70
2023-09-06T10:28:20.936Z,2.28
2023-09-06T10:31:06.495Z,2.30
2023-09-06T10:33:54.431Z,2.50
2023-09-06T10:36:58.918Z,2.60
2023-09-06T10:39:53.282Z,2.70
2023-09-06T10:42:38.230Z,2.65
2023-09-06T10:45:23.227Z,3.22
2023-09-06T10:48:11.617Z,2.30
2023-09-06T10:51:11.203Z,2.70
2023-09-06T10:53:56.870Z,2.63
2023-09-06T10:56:51.510Z,2.58
2023-09-06T10:59:43.367Z,2.50
2023-09-06T11:02:29.041Z,2.53
2023-09-06T11:05:32.635Z,2.85
2023-09-06T11:08:29.633Z,2.70
2023-09-06T11:11:14.788Z,2.53
2023-09-06T11:14:02.308Z,2.60
2023-09-06T11:16:47.974Z,2.83
2023-09-06T11:19:33.405Z,2.90
2023-09-06T11:22:21.537Z,2.83
2023-09-06T11:25:19.949Z,2.80
2023-09-06T11:28:19.422Z,2.67
2023-09-06T11:31:04.962Z,2.58
2023-09-06T11:34:03.144Z,2.80
2023-09-06T11:36:48.280Z,2.75
2023-09-06T11:39:33.395Z,2.78
2023-09-06T11:42:18.555Z,3.13
2023-09-06T11:45:03.897Z,2.92
2023-09-06T11:47:49.555Z,3.45
2023-09-06T11:50:38.713Z,3.00
2023-09-06T11:53:24.862Z,2.42
2023-09-06T11:56:11.097Z,2.70
2023-09-06T11:59:01.618Z,2.78
2023-09-06T12:01:46.611Z,2.90
2023-09-06T12:04:31.982Z,2.50
2023-09-06T12:07:17.315Z,2.50
2023-09-06T12:10:02.616Z,2.40
2023-09-06T12:12:49.844Z,2.90
2023-09-06T12:15:35.129Z,2.75
2023-09-06T12:18:20.024Z,2.60
2023-09-06T12:21:06.432Z,2.63
2023-09-06T12:23:51.617Z,2.58
2023-09-06T12:26:36.320Z,2.47
2023-09-06T12:29:21.701Z,2.50
2023-09-06T12:32:06.801Z,2.65
2023-09-06T12:34:51.724Z,2.40
2023-09-06T12:37:38.392Z,2.30
2023-09-06T12:40:23.402Z,2.45
2023-09-06T12:43:08.860Z,2.40
2023-09-06T12:45:54.928Z,2.50
2023-09-06T12:48:40.408Z,2.30
2023-09-06T12:51:25.677Z,2.20
2023-09-06T12:54:11.187Z,2.30
2023-09-06T12:56:56.638Z,2.50
2023-09-06T12:59:42.092Z,2.70
2023-09-06T13:02:27.194Z,2.42
2023-09-06T13:05:12.923Z,2.70
2023-09-06T13:08:01.534Z,2.50
2023-09-06T13:10:46.532Z,2.65
2023-09-06T13:13:32.013Z,2.42
2023-09-06T13:16:16.894Z,2.90
2023-09-06T13:19:01.855Z,2.70
2023-09-06T13:21:47.115Z,2.58
2023-09-06T13:24:32.477Z,2.63
2023-09-06T13:27:18.289Z,2.35
2023-09-06T13:30:04.513Z,2.35
2023-09-06T13:32:50.229Z,2.55
2023-09-06T13:35:35.402Z,2.60
2023-09-06T13:38:20.326Z,2.70
2023-09-06T13:41:05.174Z,2.72
2023-09-06T13:43:50.528Z,2.75
2023-09-06T13:46:36.909Z,3.00
2023-09-06T13:49:21.711Z,2.70
2023-09-06T13:52:07.925Z,2.78
2023-09-06T13:54:53.136Z,2.67
2023-09-06T13:57:38.004Z,3.05
2023-09-06T14:00:24.420Z,6.72
2023-09-06T14:03:09.390Z,3.13
2023-09-06T14:05:54.724Z,2.17
2023-09-06T14:08:40.893Z,1.95
2023-09-06T14:11:25.940Z,2.30
2023-09-06T14:14:10.998Z,2.15
2023-09-06T14:16:56.375Z,2.40
2023-09-06T14:19:41.410Z,2.17
2023-09-06T14:22:26.384Z,2.20
2023-09-06T14:25:11.835Z,2.22
2023-09-06T14:27:57.278Z,2.40
2023-09-06T14:30:43.523Z,2.40
2023-09-06T14:33:29.320Z,2.38
2023-09-06T14:36:14.593Z,2.40
2023-09-06T14:38:59.522Z,2.30
2023-09-06T14:41:45.044Z,2.35
2023-09-06T14:44:29.948Z,2.50
2023-09-06T14:47:15.534Z,2.75
2023-09-06T14:50:00.730Z,2.30
2023-09-06T14:52:45.625Z,2.60
2023-09-06T14:55:31.878Z,6.28
2023-09-06T14:58:17.025Z,2.58
2023-09-06T15:01:01.999Z,2.50
2023-09-06T15:03:47.438Z,2.60
2023-09-06T15:06:48.003Z,2.58
2023-09-06T15:09:37.929Z,2.38
2023-09-06T15:12:22.767Z,2.70
2023-09-06T15:15:09.849Z,3.05
2023-09-06T15:17:57.242Z,2.88
2023-09-06T15:20:44.409Z,2.88
2023-09-06T15:23:29.351Z,2.78
2023-09-06T15:26:14.287Z,2.60
2023-09-06T15:28:59.145Z,3.15
2023-09-06T15:31:44.170Z,3.40
2023-09-06T15:34:29.321Z,3.22
2023-09-06T15:37:14.178Z,2.88
2023-09-06T15:39:59.062Z,2.67
2023-09-06T15:42:44.443Z,2.72
2023-09-06T15:45:29.259Z,2.60
2023-09-06T15:48:14.097Z,2.80
2023-09-06T15:50:58.928Z,2.60
2023-09-06T15:53:44.332Z,2.58
2023-09-06T15:56:29.650Z,2.25
2023-09-06T15:59:14.433Z,2.75
2023-09-06T16:01:59.445Z,2.58
2023-09-06T16:04:44.682Z,2.30
2023-09-06T16:07:29.670Z,2.45
2023-09-06T16:10:14.624Z,2.60
2023-09-06T16:12:59.474Z,7.15
2023-09-06T16:15:44.233Z,2.60
2023-09-06T16:18:29.408Z,2.63
2023-09-06T16:21:14.591Z,2.60
2023-09-06T16:24:00.063Z,2.17
2023-09-06T16:26:46.854Z,2.55
2023-09-06T16:29:32.390Z,2.53
2023-09-06T16:32:17.559Z,2.30
2023-09-06T16:35:03.277Z,2.90
2023-09-06T16:37:48.553Z,2.63
2023-09-06T16:40:36.895Z,2.42
2023-09-06T16:43:21.978Z,2.42
2023-09-06T16:46:07.073Z,2.55
2023-09-06T16:48:52.537Z,2.20
2023-09-06T16:51:37.460Z,2.28
2023-09-06T16:54:22.472Z,2.30
2023-09-06T16:57:07.211Z,2.35
2023-09-06T16:59:52.575Z,2.55
2023-09-06T17:02:37.387Z,2.13
2023-09-06T17:05:22.876Z,2.45
2023-09-06T17:08:08.282Z,2.40
2023-09-06T17:10:53.554Z,2.60
2023-09-06T17:13:38.527Z,2.60
2023-09-06T17:16:24.423Z,2.60
2023-09-06T17:19:11.116Z,2.50
2023-09-06T17:21:57.014Z,2.55
2023-09-06T17:24:42.147Z,2.60
2023-09-06T17:27:28.103Z,2.45
2023-09-06T17:30:14.436Z,2.50
2023-09-06T17:33:15.436Z,2.60
2023-09-06T17:36:00.746Z,16.92
2023-09-06T17:38:45.589Z,2.90
2023-09-06T17:41:30.589Z,5.00
2023-09-06T17:44:16.013Z,3.53
2023-09-06T17:47:01.009Z,2.72
2023-09-06T17:49:45.894Z,3.10
2023-09-06T17:52:31.253Z,2.88
2023-09-06T17:55:17.246Z,3.28
2023-09-06T17:58:01.943Z,3.00
2023-09-06T18:00:47.275Z,3.25
2023-09-06T18:03:32.318Z,3.08
2023-09-06T18:06:18.466Z,3.00
2023-09-06T18:09:03.645Z,3.10
2023-09-06T18:11:48.469Z,3.25
2023-09-06T18:14:33.484Z,3.25
2023-09-06T18:17:18.387Z,4.20
2023-09-06T18:20:03.825Z,4.03
2023-09-06T18:22:48.740Z,4.15
2023-09-06T18:25:33.675Z,3.83
2023-09-06T18:28:18.508Z,3.72
2023-09-06T18:31:03.874Z,3.55
2023-09-06T18:33:49.317Z,3.70
2023-09-06T18:36:34.114Z,3.60
2023-09-06T18:39:19.554Z,3.30
2023-09-06T18:42:04.546Z,3.75
2023-09-06T18:44:49.699Z,3.78
2023-09-06T18:47:34.615Z,3.70
2023-09-06T18:50:20.834Z,3.72
2023-09-06T18:53:07.309Z,3.60
2023-09-06T18:55:52.370Z,4.03
2023-09-06T18:58:37.736Z,3.70
2023-09-06T19:01:23.202Z,3.67
2023-09-06T19:04:08.474Z,4.20
2023-09-06T19:06:54.032Z,4.15
2023-09-06T19:09:38.779Z,9.43
2023-09-06T19:12:23.741Z,5.60
2023-09-06T19:15:09.685Z,4.45
2023-09-06T19:17:54.979Z,4.47
2023-09-06T19:20:39.991Z,4.43
2023-09-06T19:23:25.266Z,7.93
2023-09-06T19:26:10.218Z,6.82
2023-09-06T19:28:55.102Z,4.20
2023-09-06T19:31:40.038Z,3.95
2023-09-06T19:34:24.830Z,3.90
2023-09-06T19:37:10.209Z,4.13
2023-09-06T19:39:55.028Z,4.30
2023-09-06T19:42:39.902Z,4.45
2023-09-06T19:45:24.823Z,4.20
2023-09-06T19:48:09.769Z,4.57
2023-09-06T19:50:54.664Z,4.75
2023-09-06T19:53:39.953Z,4.20
2023-09-06T19:56:25.409Z,3.70
2023-09-06T19:59:10.149Z,3.88
2023-09-06T20:01:55.058Z,4.25
2023-09-06T20:04:40.739Z,4.43
2023-09-06T20:07:27.574Z,4.50
2023-09-06T20:10:14.340Z,3.80
2023-09-06T20:12:59.679Z,4.22
2023-09-06T20:15:44.734Z,3.80
2023-09-06T20:18:30.573Z,4.78
2023-09-06T20:21:15.834Z,4.13
2023-09-06T20:24:00.762Z,4.88
2023-09-06T20:26:45.720Z,5.45
2023-09-06T20:29:30.578Z,4.32
2023-09-06T20:32:15.320Z,4.88
2023-09-06T20:35:00.172Z,4.28
2023-09-06T20:37:45.048Z,4.07
2023-09-06T20:40:30.474Z,4.07
2023-09-06T20:43:15.762Z,3.95
2023-09-06T20:46:00.946Z,4.22
2023-09-06T20:48:46.100Z,4.10
2023-09-06T20:51:30.898Z,3.80
2023-09-06T20:54:15.877Z,4.07
2023-09-06T20:57:01.248Z,4.10
2023-09-06T20:59:46.118Z,3.92
2023-09-06T21:02:31.031Z,4.18
2023-09-06T21:05:16.014Z,4.30
2023-09-06T21:08:00.857Z,4.40
2023-09-06T21:10:45.622Z,4.40
2023-09-06T21:13:30.519Z,4.63
2023-09-06T21:16:15.971Z,4.40
2023-09-06T21:19:01.278Z,4.60
2023-09-06T21:21:46.279Z,4.60
2023-09-06T21:24:31.277Z,4.60
2023-09-06T21:27:16.638Z,4.30
2023-09-06T21:30:01.408Z,4.18
2023-09-06T21:32:46.401Z,4.20
2023-09-06T21:35:31.182Z,4.07
2023-09-06T21:38:16.186Z,4.00
2023-09-06T21:41:00.938Z,3.80
2023-09-06T21:43:45.720Z,3.75
2023-09-06T21:46:30.799Z,3.47
2023-09-06T21:49:15.765Z,3.65
2023-09-06T21:52:00.565Z,3.60
2023-09-06T21:54:45.665Z,3.40
2023-09-06T21:57:30.740Z,3.72
2023-09-06T22:00:15.933Z,3.85
2023-09-06T22:03:01.229Z,3.63
2023-09-06T22:05:49.163Z,3.70
2023-09-06T22:08:34.289Z,3.70
2023-09-06T22:11:19.594Z,3.70
2023-09-06T22:14:04.539Z,4.50
2023-09-06T22:16:49.522Z,4.20
2023-09-06T22:19:34.548Z,3.50
2023-09-06T22:22:19.760Z,3.63
2023-09-06T22:25:08.260Z,3.90
2023-09-06T22:27:53.733Z,3.40
2023-09-06T22:30:41.640Z,3.47
2023-09-06T22:33:26.439Z,3.60
2023-09-06T22:36:11.304Z,3.33
2023-09-06T22:38:56.735Z,3.35
2023-09-06T22:41:41.726Z,3.67
2023-09-06T22:44:26.613Z,3.50
2023-09-06T22:47:11.582Z,3.35
2023-09-06T22:49:56.496Z,3.50
2023-09-06T22:52:41.565Z,3.47
2023-09-06T22:55:27.333Z,3.60
2023-09-06T22:58:12.237Z,3.38
2023-09-06T23:01:07.365Z,3.90
2023-09-06T23:03:52.826Z,3.47
2023-09-06T23:06:38.043Z,3.40
2023-09-06T23:09:22.994Z,3.33
2023-09-06T23:12:07.836Z,3.45
2023-09-06T23:14:53.290Z,3.78
2023-09-06T23:17:38.273Z,3.70
2023-09-06T23:20:23.990Z,3.80
2023-09-06T23:23:09.112Z,3.70
2023-09-06T23:25:54.189Z,3.67
2023-09-06T23:28:39.178Z,3.75
2023-09-06T23:31:24.945Z,3.50
2023-09-06T23:34:10.095Z,3.80
2023-09-06T23:36:55.735Z,3.83
2023-09-06T23:39:40.757Z,3.95
2023-09-06T23:42:25.601Z,3.63
2023-09-06T23:45:10.557Z,3.75
2023-09-06T23:47:57.723Z,3.50
2023-09-06T23:50:44.503Z,3.78
2023-09-06T23:53:29.941Z,3.92
2023-09-06T23:56:15.409Z,4.18
2023-09-06T23:59:00.116Z,4.03
